CheckWX is a tool to help pilots better visualize weather data.  It is not intended as a substitute for an official pre-flight weather briefing.

19:03:08 UTC

I19 METAR
Greene County-Lewis A Jackson Regional Airport
Dayton, Ohio, USA
Current

28 mins ago

KI19 191835Z AUTO 12003KT 10SM SCT027 00/M06 A3056 RMK AO2 T00041058
Observed
Feb-19 @ 18:35 UTC
Wind
  • 120° at 3 KTS
Visibility
10 SM
Flight Rules
VFR
Cloud Levels
  • Scattered at 2,700' AGL
Temperature
C / 32°F
Dewpoint
-6°C / 21°F
Humidity
64%
Altimeter
30.56" Hg
Pressure
1034.91 hPa
Previous

48 mins ago

KI19 191815Z AUTO 11004KT 10SM CLR 00/M06 A3057 RMK AO2 T00021060
Observed
Feb-19 @ 18:15 UTC
Wind
  • 110° at 4 KTS
Visibility
10 SM
Flight Rules
VFR
Cloud Levels
  • Clear skies
Temperature
C / 32°F
Dewpoint
-6°C / 21°F
Humidity
64%
Altimeter
30.57" Hg
Pressure
1035.21 hPa
Previous

1 hour ago

KI19 191756Z AUTO 00000KT 10SM CLR 00/M06 A3060 RMK AO2 T00001065 10003 21063
Observed
Feb-19 @ 17:56 UTC
Visibility
10 SM
Flight Rules
VFR
Cloud Levels
  • Clear skies
Temperature
C / 32°F
Dewpoint
-7°C / 19°F
Humidity
60%
Altimeter
30.6" Hg
Pressure
1036.21 hPa